Terminal Aerodrome Forecast
Issued by NWS Sioux Falls, SD

Home | Current Version | Previous Version | Graphics & Text | Print | Product List | Glossary Off
Versions: 1 2 3 4 5 6 7 8 9 10 11 12 13 14 15 16 17 18 19 20

724
FTUS43 KFSD 170530
TAFFSD
TAF
KFSD 170530Z 1706/1806 31005KT P6SM SKC
     FM172100 20005KT P6SM SKC
     FM180000 14004KT P6SM BKN080=

USA.gov is the U.S. government's official web portal to all federal, state and local government web resources and services.